Disclaimer

Please do not use the information listed here in-flight or in-navigation, as they are not provided to us by the airports but are provided by volunteers, so they might be outdated.

Search


Regions


Airport information page

Radio informations:
INFO - 118.8 MHz

Airport informations:
Latitude: 59° 33' 56.46" N
Longitude: 009° 12' 44.00" E
Elevation: 63 feet - 19 meters
Operating hours: Remarks
Operating agency: Civil government, landing fees and diplomatic clearance may be required
Timezone: UTC+1(+2DT) - Last Sunday in March to last Sunday in October
Fuel: Jet A1+, Jet A1 with icing inhibitor.

100/130 MIL Spec, low lead, aviation gasoline (BLUE)

Runway information:
12/30 - 4570 x 131 feet< - >1393 x 40 meters

Recent METARs:
ENNO 191750Z 29003KT 9999 BKN024 M01/M01 Q1039
ENNO 191750Z 29003KT 9999 BKN024 M01/M01 Q1039
ENNO 191750Z 29003KT 9999 BKN024 M01/M01 Q1039

Airport on the map: